Time;durP1;ratioP1;P1;durP2;ratioP2;P2;SDS_P1;SDS_P2;PMS_P1;PMS_P2;Temp;Humidity;BMP_temperature;BMP_pressure;BME280_temperature;BME280_humidity;BME280_pressure;Samples;Min_cycle;Max_cycle;Signal;HPM_P1;HPM_P2
2022/06/16 00:01:12;;;;;;;8.83;8.07;;;19.00;99.90;;;;;;5073326;28;20212;-47
2022/06/16 00:03:39;;;;;;;9.50;8.57;;;19.00;99.90;;;;;;5079202;28;20188;-47
2022/06/16 00:06:08;;;;;;;9.77;8.77;;;19.00;99.90;;;;;;5081074;28;20579;-47
2022/06/16 00:08:35;;;;;;;11.07;9.93;;;19.10;99.90;;;;;;5080464;28;20227;-47
2022/06/16 00:11:17;;;;;;;9.57;8.77;;;19.10;99.90;;;;;;5069508;28;20204;-47
2022/06/16 00:13:45;;;;;;;9.13;8.43;;;19.10;99.90;;;;;;5078299;28;20216;-47
2022/06/16 00:16:12;;;;;;;10.80;8.00;;;19.10;99.90;;;;;;5078507;28;20197;-47
2022/06/16 00:18:41;;;;;;;8.67;7.93;;;19.10;99.90;;;;;;5079577;28;20220;-47
2022/06/16 00:21:09;;;;;;;7.43;6.80;;;19.20;99.90;;;;;;5075443;28;20464;-47
2022/06/16 00:23:36;;;;;;;6.70;6.00;;;19.10;99.90;;;;;;5068985;28;20239;-47
2022/06/16 00:26:04;;;;;;;7.67;6.97;;;19.10;99.90;;;;;;5080511;28;20625;-48
2022/06/16 00:28:31;;;;;;;6.53;6.13;;;19.00;99.90;;;;;;5076715;28;20223;-47
2022/06/16 00:31:05;;;;;;;8.57;6.07;;;19.00;99.90;;;;;;5069384;28;20212;-48
2022/06/16 00:33:32;;;;;;;5.63;5.13;;;19.00;99.90;;;;;;5071030;28;20213;-47
2022/06/16 00:36:00;;;;;;;5.77;5.17;;;18.90;99.90;;;;;;5073504;28;20621;-47
2022/06/16 00:38:29;;;;;;;4.00;3.70;;;18.80;99.90;;;;;;5083293;28;20221;-47
2022/06/16 00:40:56;;;;;;;3.83;2.43;;;18.70;99.90;;;;;;5077569;28;20197;-47
2022/06/16 00:43:23;;;;;;;2.37;2.27;;;18.70;99.90;;;;;;5076192;28;20184;-47
2022/06/16 00:45:53;;;;;;;2.17;1.93;;;18.80;99.90;;;;;;5071791;28;20193;-47
2022/06/16 00:48:26;;;;;;;1.73;1.33;;;18.80;99.90;;;;;;5074460;28;20246;-47
2022/06/16 00:50:57;;;;;;;4.17;1.57;;;18.80;99.90;;;;;;5082636;28;20209;-47
2022/06/16 00:53:27;;;;;;;1.63;1.40;;;19.00;99.90;;;;;;5080102;28;20243;-47
2022/06/16 00:55:56;;;;;;;2.53;1.70;;;19.00;99.90;;;;;;5083908;28;20232;-47
2022/06/16 00:58:25;;;;;;;1.23;1.17;;;19.00;99.90;;;;;;5080985;28;20205;-47
2022/06/16 01:00:53;;;;;;;3.20;1.73;;;18.90;99.90;;;;;;5074411;28;20200;-47
2022/06/16 01:06:01;;;;;;;2.13;1.30;;;18.90;99.90;;;;;;5069083;28;20224;-47
2022/06/16 01:08:32;;;;;;;1.90;1.23;;;19.00;99.90;;;;;;5074683;28;20227;-47
2022/06/16 01:11:09;;;;;;;1.47;1.37;;;19.10;99.90;;;;;;5083234;28;20215;-47
2022/06/16 01:13:41;;;;;;;2.50;1.10;;;19.10;99.90;;;;;;5082052;28;20213;-47
2022/06/16 01:16:18;;;;;;;3.80;1.37;;;19.10;99.90;;;;;;5082294;28;20575;-47
2022/06/16 01:18:56;;;;;;;1.60;1.20;;;19.30;99.90;;;;;;5073469;28;20566;-47
2022/06/16 01:21:33;;;;;;;1.73;1.20;;;19.30;99.90;;;;;;5068290;28;20198;-48
2022/06/16 01:24:35;;;;;;;3.80;1.80;;;19.30;99.90;;;;;;5080132;28;20224;-47
2022/06/16 01:27:38;;;;;;;2.43;1.70;;;19.30;99.90;;;;;;5073543;28;20216;-47
2022/06/16 01:30:10;;;;;;;3.40;2.50;;;19.30;99.90;;;;;;5076322;28;20641;-47
2022/06/16 01:32:48;;;;;;;2.37;2.00;;;19.30;99.90;;;;;;5082453;28;20203;-47
2022/06/16 01:35:26;;;;;;;1.70;1.60;;;19.40;99.90;;;;;;5077192;28;20674;-47
2022/06/16 01:38:05;;;;;;;8.63;1.90;;;19.40;99.90;;;;;;5088723;28;20200;-47
2022/06/16 01:40:38;;;;;;;3.33;1.60;;;19.30;99.90;;;;;;5087706;28;20208;-47
2022/06/16 01:43:11;;;;;;;3.23;2.87;;;19.30;99.90;;;;;;5082059;28;20213;-47
2022/06/16 01:45:43;;;;;;;2.87;2.60;;;19.40;99.90;;;;;;5077675;28;20655;-47
2022/06/16 01:48:13;;;;;;;3.80;2.27;;;19.40;99.90;;;;;;5064748;28;20208;-48
2022/06/16 01:50:48;;;;;;;4.67;2.27;;;19.30;99.90;;;;;;5072461;28;20201;-47
2022/06/16 01:53:21;;;;;;;3.43;2.00;;;19.30;99.90;;;;;;5069925;28;20230;-47
2022/06/16 01:55:58;;;;;;;2.37;1.40;;;19.30;99.90;;;;;;5078777;28;20200;-47
2022/06/16 01:58:29;;;;;;;2.00;1.57;;;19.30;99.90;;;;;;5075560;28;20225;-47
2022/06/16 02:01:02;;;;;;;3.07;1.13;;;19.20;99.90;;;;;;5083236;28;20192;-47
2022/06/16 02:03:33;;;;;;;1.53;1.40;;;19.30;99.90;;;;;;5078602;28;20684;-47
2022/06/16 02:06:03;;;;;;;2.50;1.13;;;19.40;99.90;;;;;;5072479;28;20236;-47
2022/06/16 02:08:34;;;;;;;3.90;1.40;;;19.40;99.90;;;;;;5071936;28;20282;-47
2022/06/16 02:11:08;;;;;;;3.23;1.47;;;19.50;99.90;;;;;;5082806;28;20746;-47
2022/06/16 02:13:51;;;;;;;2.97;1.70;;;19.60;99.90;;;;;;5077041;28;20606;-47
2022/06/16 02:16:23;;;;;;;3.10;2.27;;;19.70;99.90;;;;;;5073920;28;20221;-47
2022/06/16 02:18:52;;;;;;;13.57;3.63;;;19.80;99.90;;;;;;5079242;28;20227;-47
2022/06/16 02:21:23;;;;;;;3.73;2.57;;;19.70;99.90;;;;;;5076795;28;20257;-47
2022/06/16 02:23:52;;;;;;;3.47;1.47;;;19.70;99.90;;;;;;5082831;28;20200;-47
2022/06/16 02:26:19;;;;;;;4.10;1.43;;;19.60;99.90;;;;;;5078603;28;20742;-47
2022/06/16 02:28:49;;;;;;;5.63;3.77;;;19.50;99.90;;;;;;5071584;28;20220;-47
2022/06/16 02:31:36;;;;;;;1.77;1.67;;;19.50;99.90;;;;;;5089458;28;21412;-47
2022/06/16 02:34:11;;;;;;;2.40;1.70;;;19.40;99.90;;;;;;5070694;28;20632;-47
2022/06/16 02:37:10;;;;;;;2.53;1.30;;;19.40;99.90;;;;;;5075382;28;20689;-47
2022/06/16 02:40:06;;;;;;;2.30;2.17;;;19.40;99.90;;;;;;5079516;28;20216;-47
2022/06/16 02:42:43;;;;;;;3.40;1.83;;;19.40;99.90;;;;;;5081264;28;20196;-47
2022/06/16 02:45:18;;;;;;;1.60;1.50;;;19.40;99.90;;;;;;5066356;28;20192;-47
2022/06/16 02:47:58;;;;;;;3.83;2.40;;;19.20;99.90;;;;;;5077833;28;20347;-47
2022/06/16 02:50:38;;;;;;;2.63;2.10;;;19.20;99.90;;;;;;5074917;28;20232;-47
2022/06/16 02:53:14;;;;;;;2.30;1.80;;;19.20;99.90;;;;;;5077272;28;20728;-48
2022/06/16 02:55:44;;;;;;;3.23;2.10;;;19.20;99.90;;;;;;5079863;28;21006;-48
2022/06/16 02:58:15;;;;;;;1.93;1.70;;;19.20;99.90;;;;;;5063824;28;20262;-47
2022/06/16 03:00:44;;;;;;;3.27;1.77;;;19.10;99.90;;;;;;5069788;28;20262;-47
2022/06/16 03:03:22;;;;;;;3.60;2.30;;;19.10;99.90;;;;;;5079662;28;20196;-47
2022/06/16 03:05:53;;;;;;;2.40;1.17;;;19.10;99.90;;;;;;5079153;28;20204;-48
2022/06/16 03:08:22;;;;;;;5.13;1.10;;;19.00;99.90;;;;;;5069973;28;20197;-47
2022/06/16 03:10:52;;;;;;;1.37;1.30;;;19.10;99.90;;;;;;5077983;28;20201;-47
2022/06/16 03:13:19;;;;;;;1.97;1.53;;;19.10;99.90;;;;;;5075883;28;20197;-47
2022/06/16 03:15:46;;;;;;;4.20;1.50;;;19.10;99.90;;;;;;5071463;28;20205;-47
2022/06/16 03:18:14;;;;;;;2.10;1.30;;;19.20;99.90;;;;;;5079035;28;20621;-47
2022/06/16 03:20:42;;;;;;;1.37;0.90;;;19.20;99.90;;;;;;5080337;28;20225;-47
2022/06/16 03:23:10;;;;;;;4.07;1.83;;;19.20;99.90;;;;;;5077216;28;20223;-47
2022/06/16 03:25:38;;;;;;;1.97;1.77;;;19.10;99.90;;;;;;5079955;28;20192;-47
2022/06/16 03:28:09;;;;;;;3.67;1.87;;;19.10;99.90;;;;;;5078889;28;20637;-47
2022/06/16 03:30:36;;;;;;;3.03;1.37;;;19.10;99.90;;;;;;5085107;28;20201;-47
2022/06/16 03:33:03;;;;;;;1.53;1.43;;;19.10;99.90;;;;;;5073820;28;20205;-47
2022/06/16 03:35:30;;;;;;;2.50;2.40;;;19.10;99.90;;;;;;5072067;28;20263;-47
2022/06/16 03:37:59;;;;;;;2.80;2.13;;;19.00;99.90;;;;;;5072753;28;20254;-47
2022/06/16 03:40:26;;;;;;;1.80;1.70;;;19.00;99.90;;;;;;5077141;28;20301;-47
2022/06/16 03:42:53;;;;;;;1.20;1.10;;;18.90;99.90;;;;;;5081191;28;20678;-47
2022/06/16 03:45:21;;;;;;;2.50;1.53;;;19.00;99.90;;;;;;5079645;28;20279;-47
2022/06/16 03:47:48;;;;;;;5.00;1.63;;;19.10;99.90;;;;;;5069695;28;20259;-47
2022/06/16 03:50:17;;;;;;;1.90;1.47;;;19.20;99.90;;;;;;5072972;28;20217;-47
2022/06/16 03:52:44;;;;;;;2.00;1.47;;;19.40;99.90;;;;;;5074408;28;20254;-47
2022/06/16 03:55:13;;;;;;;2.10;1.13;;;19.50;99.90;;;;;;5072408;28;20307;-47
2022/06/16 03:57:40;;;;;;;3.30;1.17;;;19.50;99.90;;;;;;5066409;28;20251;-48
2022/06/16 04:00:09;;;;;;;3.70;1.90;;;19.50;99.90;;;;;;5071455;28;20637;-47
2022/06/16 04:02:37;;;;;;;4.53;1.23;;;19.50;99.90;;;;;;5072928;28;20655;-48
2022/06/16 04:05:06;;;;;;;1.57;1.33;;;19.50;99.90;;;;;;5076446;28;20205;-47
2022/06/16 04:07:33;;;;;;;3.23;1.60;;;19.60;99.90;;;;;;5073923;28;20559;-47
2022/06/16 04:10:00;;;;;;;1.40;1.30;;;19.70;99.90;;;;;;5069444;28;20225;-48
2022/06/16 04:12:29;;;;;;;3.67;2.37;;;19.70;99.90;;;;;;5070227;28;20201;-47
2022/06/16 04:14:56;;;;;;;2.33;1.37;;;19.80;99.90;;;;;;5073314;28;20248;-47
2022/06/16 04:17:23;;;;;;;2.50;1.93;;;20.00;99.90;;;;;;5065613;28;20204;-47
2022/06/16 04:22:35;;;;;;;3.13;1.77;;;20.30;99.90;;;;;;5074027;28;20200;-47
2022/06/16 04:25:02;;;;;;;4.87;1.80;;;20.40;99.90;;;;;;5074515;28;20208;-47
2022/06/16 04:27:30;;;;;;;1.80;1.70;;;20.50;99.90;;;;;;5072326;28;20744;-47
2022/06/16 04:29:58;;;;;;;2.43;1.57;;;20.50;99.90;;;;;;5070983;28;20226;-47
2022/06/16 04:32:25;;;;;;;1.90;1.80;;;20.50;99.90;;;;;;5080769;28;20197;-47
2022/06/16 04:34:52;;;;;;;2.23;1.70;;;20.40;99.90;;;;;;5078489;28;20221;-47
2022/06/16 04:37:19;;;;;;;2.10;2.00;;;20.30;99.90;;;;;;5075554;28;20197;-48
2022/06/16 04:39:46;;;;;;;5.23;2.87;;;20.20;99.90;;;;;;5076123;28;20217;-47
2022/06/16 04:42:13;;;;;;;5.93;3.37;;;20.00;99.90;;;;;;5065628;28;20272;-47
2022/06/16 04:44:42;;;;;;;3.28;2.88;;;19.70;99.90;;;;;;5072069;28;20468;-47
2022/06/16 04:47:11;;;;;;;1.93;1.77;;;19.50;99.90;;;;;;5076580;28;20608;-47
2022/06/16 04:49:38;;;;;;;7.37;2.10;;;19.20;99.90;;;;;;5072030;28;20221;-47
2022/06/16 04:52:06;;;;;;;2.43;2.23;;;19.10;99.90;;;;;;5076869;28;20561;-47
2022/06/16 04:54:34;;;;;;;3.13;1.87;;;19.00;99.90;;;;;;5073029;28;20214;-47
2022/06/16 04:57:03;;;;;;;3.00;1.90;;;18.90;99.90;;;;;;5076576;28;20210;-47
2022/06/16 04:59:30;;;;;;;1.90;1.80;;;18.80;99.90;;;;;;5066661;28;20316;-47
2022/06/16 05:01:58;;;;;;;9.17;2.93;;;18.80;99.90;;;;;;5072346;28;20193;-47
2022/06/16 05:04:26;;;;;;;4.97;2.40;;;18.80;99.90;;;;;;5071590;28;20197;-47
2022/06/16 05:06:54;;;;;;;7.60;2.97;;;18.80;99.90;;;;;;5075451;28;20292;-47
2022/06/16 05:09:21;;;;;;;4.03;3.13;;;18.70;99.90;;;;;;5078280;28;20266;-47
2022/06/16 05:11:48;;;;;;;3.20;2.40;;;18.60;99.90;;;;;;5073241;28;20189;-47
2022/06/16 05:14:16;;;;;;;4.10;2.13;;;18.50;99.90;;;;;;5068761;28;20326;-47
2022/06/16 05:16:43;;;;;;;2.20;2.00;;;18.30;99.90;;;;;;5073378;28;20288;-47
2022/06/16 05:19:12;;;;;;;4.90;2.43;;;18.20;99.90;;;;;;5067636;28;20225;-47
2022/06/16 05:21:39;;;;;;;2.67;2.10;;;18.20;99.90;;;;;;5078481;28;20681;-47
2022/06/16 05:24:06;;;;;;;4.93;2.50;;;18.10;99.90;;;;;;5075611;28;20224;-47
2022/06/16 05:26:33;;;;;;;2.30;2.10;;;18.20;99.90;;;;;;5072707;28;20194;-47
2022/06/16 05:29:00;;;;;;;5.53;1.97;;;18.30;99.90;;;;;;5072030;28;20257;-47
2022/06/16 05:31:27;;;;;;;2.20;2.00;;;18.30;99.90;;;;;;5073513;28;20194;-47
2022/06/16 05:33:58;;;;;;;3.53;3.20;;;18.40;99.90;;;;;;5075275;28;20223;-47
2022/06/16 05:36:26;;;;;;;6.13;3.43;;;18.40;99.90;;;;;;5072438;28;20216;-47
2022/06/16 05:38:53;;;;;;;4.23;3.10;;;18.40;99.90;;;;;;5075871;28;20225;-47
2022/06/16 05:41:21;;;;;;;2.43;2.20;;;18.40;99.90;;;;;;5070233;28;20247;-47
2022/06/16 05:43:48;;;;;;;5.80;2.47;;;18.40;99.90;;;;;;5071560;28;20292;-47
2022/06/16 05:46:18;;;;;;;2.70;2.30;;;18.40;99.90;;;;;;5072679;28;20225;-47
2022/06/16 05:48:45;;;;;;;5.50;2.07;;;18.40;99.90;;;;;;5071262;28;20775;-48
2022/06/16 05:51:14;;;;;;;2.77;2.37;;;18.50;99.90;;;;;;5071653;28;20232;-47
2022/06/16 05:53:43;;;;;;;3.23;2.30;;;18.60;99.90;;;;;;5075479;28;20197;-47
2022/06/16 05:56:11;;;;;;;9.33;2.77;;;18.80;99.90;;;;;;5072627;28;20256;-47
2022/06/16 05:58:38;;;;;;;5.27;2.43;;;18.90;99.90;;;;;;5070904;28;20233;-46
2022/06/16 06:01:05;;;;;;;3.30;1.73;;;19.00;99.90;;;;;;5069828;28;20201;-47
2022/06/16 06:03:32;;;;;;;2.67;2.50;;;19.20;99.90;;;;;;5073917;28;20220;-47
2022/06/16 06:06:00;;;;;;;3.60;2.30;;;19.30;99.90;;;;;;5073930;28;20244;-47
2022/06/16 06:16:46;;;;;;;2.93;2.67;;;19.60;99.90;;;;;;5076796;28;20250;-47
2022/06/16 06:19:25;;;;;;;2.43;2.30;;;19.70;99.90;;;;;;5070243;28;20598;-47
2022/06/16 06:22:00;;;;;;;4.90;2.27;;;19.80;99.90;;;;;;5069567;28;20285;-47
2022/06/16 06:24:29;;;;;;;2.63;1.60;;;19.90;99.90;;;;;;5071864;28;20200;-47
2022/06/16 06:26:59;;;;;;;1.90;1.83;;;20.50;99.90;;;;;;5069459;28;20202;-47
2022/06/16 06:29:27;;;;;;;2.60;1.70;;;21.00;99.90;;;;;;5068930;28;20225;-47
2022/06/16 06:31:54;;;;;;;3.47;2.10;;;21.10;99.90;;;;;;5075278;28;20197;-47
2022/06/16 06:34:22;;;;;;;4.10;1.60;;;21.10;99.90;;;;;;5080241;28;20196;-47
2022/06/16 06:36:49;;;;;;;5.80;2.03;;;20.90;99.90;;;;;;5070341;28;20699;-47
2022/06/16 06:39:16;;;;;;;2.27;1.70;;;20.80;99.90;;;;;;5072348;28;20251;-47
2022/06/16 06:41:43;;;;;;;3.60;1.67;;;20.60;99.90;;;;;;5075588;28;20205;-47
2022/06/16 06:44:13;;;;;;;3.40;2.07;;;20.40;99.90;;;;;;5073749;28;20196;-47
2022/06/16 06:46:40;;;;;;;6.73;3.10;;;20.20;99.90;;;;;;5071451;28;20243;-47
2022/06/16 06:49:07;;;;;;;4.67;2.30;;;19.90;99.90;;;;;;5071404;28;20213;-47
2022/06/16 06:51:35;;;;;;;7.77;2.63;;;19.70;99.90;;;;;;5074471;28;20675;-47
2022/06/16 06:54:02;;;;;;;4.07;2.37;;;19.50;99.90;;;;;;5105556;22;20232;-52
2022/06/16 06:56:31;;;;;;;4.33;1.70;;;19.30;99.90;;;;;;5107927;28;20216;-52
2022/06/16 06:59:01;;;;;;;5.60;2.37;;;19.20;99.90;;;;;;5100262;28;20253;-52
2022/06/16 07:01:29;;;;;;;3.07;2.50;;;19.10;99.90;;;;;;5103944;28;20204;-52
2022/06/16 07:03:56;;;;;;;4.57;4.17;;;18.90;99.90;;;;;;5102319;28;20216;-52
2022/06/16 07:06:23;;;;;;;4.57;2.80;;;19.00;99.90;;;;;;5095885;28;20708;-52
2022/06/16 07:08:50;;;;;;;4.30;2.73;;;18.80;99.90;;;;;;5087495;28;20197;-52
2022/06/16 07:11:17;;;;;;;4.27;2.70;;;18.90;99.90;;;;;;5098345;28;20666;-52
2022/06/16 07:13:44;;;;;;;7.30;3.03;;;19.60;99.90;;;;;;5089986;28;20657;-53
2022/06/16 07:16:12;;;;;;;2.37;2.27;;;20.60;99.90;;;;;;5084851;28;20260;-52
2022/06/16 07:18:40;;;;;;;2.37;2.17;;;21.00;99.90;;;;;;5084852;28;20619;-53
2022/06/16 07:21:07;;;;;;;2.93;2.47;;;21.10;99.90;;;;;;5092310;28;20208;-52
2022/06/16 07:23:34;;;;;;;2.70;2.53;;;21.20;99.90;;;;;;5099931;28;20252;-52
2022/06/16 07:26:01;;;;;;;4.83;3.00;;;21.40;99.90;;;;;;5088381;28;20196;-52
2022/06/16 07:28:29;;;;;;;5.20;2.97;;;21.70;99.90;;;;;;5099986;28;20245;-53
2022/06/16 07:30:56;;;;;;;4.43;2.73;;;23.00;99.90;;;;;;5086886;28;20196;-53
2022/06/16 07:33:24;;;;;;;2.50;2.40;;;24.30;99.90;;;;;;5088964;28;20263;-52
2022/06/16 07:35:55;;;;;;;3.90;2.23;;;25.50;99.90;;;;;;5086019;28;20294;-53
2022/06/16 07:38:23;;;;;;;5.40;3.10;;;26.70;99.90;;;;;;5092068;28;20669;-53
2022/06/16 07:40:50;;;;;;;3.67;2.77;;;27.30;99.90;;;;;;5091964;28;20232;-53
2022/06/16 07:43:17;;;;;;;2.97;2.80;;;27.60;99.90;;;;;;5091762;28;20213;-53
2022/06/16 07:45:45;;;;;;;2.77;2.57;;;27.50;99.90;;;;;;5083513;28;20251;-53
2022/06/16 07:48:15;;;;;;;4.43;2.67;;;27.80;99.90;;;;;;5083911;28;20201;-53
2022/06/16 07:50:42;;;;;;;5.80;2.70;;;28.70;99.90;;;;;;5091744;28;20705;-53
2022/06/16 07:53:10;;;;;;;2.92;2.38;;;29.30;99.90;;;;;;5091292;28;20232;-53
2022/06/16 07:55:37;;;;;;;4.38;2.15;;;29.20;99.90;;;;;;5091366;28;20313;-53
2022/06/16 07:58:04;;;;;;;7.03;2.95;;;28.70;99.90;;;;;;5083529;28;20279;-53
2022/06/16 08:00:35;;;;;;;3.65;2.05;;;27.90;99.90;;;;;;5091726;28;20735;-53
2022/06/16 08:03:03;;;;;;;2.60;1.70;;;27.00;99.90;;;;;;5091595;28;20224;-53
2022/06/16 08:05:29;;;;;;;1.83;1.73;;;26.50;99.90;;;;;;5084563;28;20193;-57
2022/06/16 08:08:00;;;;;;;3.08;2.03;;;26.10;99.90;;;;;;5083036;28;20203;-53
2022/06/16 08:10:33;;;;;;;4.53;2.15;;;25.80;99.90;;;;;;5091893;28;20223;-53
2022/06/16 08:13:00;;;;;;;4.88;2.92;;;25.80;99.90;;;;;;5091516;28;20200;-53
2022/06/16 08:15:27;;;;;;;5.75;2.08;;;26.00;99.90;;;;;;5084797;28;20221;-53
2022/06/16 08:17:56;;;;;;;3.45;2.10;;;26.10;99.90;;;;;;5080357;28;20217;-52
2022/06/16 08:20:24;;;;;;;3.85;1.60;;;25.80;99.90;;;;;;5077438;28;20205;-53
2022/06/16 08:22:50;;;;;;;2.15;2.03;;;25.40;99.90;;;;;;5073977;28;20208;-52
2022/06/16 08:25:19;;;;;;;3.10;2.03;;;25.10;99.90;;;;;;5085775;28;20796;-53
2022/06/16 08:27:49;;;;;;;4.10;1.67;;;25.40;99.90;;;;;;5083419;28;20213;-53
2022/06/16 08:30:18;;;;;;;3.67;1.50;;;26.00;99.90;;;;;;5091094;28;20188;-53
2022/06/16 08:32:46;;;;;;;2.83;2.10;;;26.50;99.90;;;;;;5091052;28;20204;-53
2022/06/16 08:35:13;;;;;;;1.52;1.40;;;27.60;99.90;;;;;;5086780;28;20197;-53
2022/06/16 08:37:40;;;;;;;2.67;2.25;;;28.30;99.90;;;;;;5079459;28;20197;-53
2022/06/16 08:40:08;;;;;;;3.45;2.47;;;29.00;99.90;;;;;;5076459;28;20201;-53
2022/06/16 08:42:42;;;;;;;4.63;1.35;;;29.00;99.90;;;;;;5090957;28;20244;-53
2022/06/16 08:45:26;;;;;;;2.88;1.52;;;27.90;99.90;;;;;;5086956;28;20280;-53
2022/06/16 08:48:11;;;;;;;4.57;1.70;;;27.70;99.90;;;;;;5091437;28;20199;-53
2022/06/16 08:50:45;;;;;;;3.45;2.45;;;27.50;99.90;;;;;;5091196;28;20650;-53
2022/06/16 08:53:26;;;;;;;2.92;2.70;;;28.40;99.90;;;;;;5090816;28;20260;-52
2022/06/16 08:55:58;;;;;;;3.20;2.90;;;28.60;99.90;;;;;;5081853;28;20257;-53
2022/06/16 08:58:32;;;;;;;4.05;2.90;;;28.70;99.90;;;;;;5091248;28;20284;-53
2022/06/16 09:01:07;;;;;;;2.42;2.28;;;29.00;99.90;;;;;;5091300;28;20208;-53
2022/06/16 09:03:40;;;;;;;3.55;2.70;;;29.40;99.90;;;;;;5086945;28;20219;-53
2022/06/16 09:06:20;;;;;;;5.25;2.55;;;29.60;99.90;;;;;;5081363;28;20197;-53
2022/06/16 09:08:54;;;;;;;4.72;2.40;;;30.10;99.90;;;;;;5088219;28;20401;-53
2022/06/16 09:11:29;;;;;;;3.60;2.25;;;30.50;99.90;;;;;;5088922;28;20205;-53
2022/06/16 09:15:10;;;;;;;3.47;2.60;;;30.40;99.90;;;;;;5090245;28;20215;-53
2022/06/16 09:17:20;;;;;;;5.22;2.65;;;29.90;99.90;;;;;;5080445;28;20304;-53
2022/06/16 09:19:58;;;;;;;2.55;2.42;;;29.30;99.90;;;;;;5080081;28;20202;-53
2022/06/16 09:22:37;;;;;;;6.53;3.13;;;29.80;99.90;;;;;;5097060;28;20219;-53
2022/06/16 09:25:15;;;;;;;8.43;3.08;;;29.80;99.90;;;;;;5086043;28;20248;-53
2022/06/16 09:27:45;;;;;;;3.10;2.53;;;30.20;99.90;;;;;;5094378;28;20200;-53
2022/06/16 09:30:18;;;;;;;4.68;2.63;;;30.50;99.90;;;;;;5094629;28;20232;-53
2022/06/16 09:32:52;;;;;;;4.90;2.50;;;30.90;99.90;;;;;;5082116;28;20205;-53
2022/06/16 09:35:25;;;;;;;2.80;2.53;;;30.40;99.90;;;;;;5088408;28;20249;-53
2022/06/16 09:37:57;;;;;;;2.75;2.50;;;29.60;99.90;;;;;;5082329;28;20246;-54
2022/06/16 09:40:28;;;;;;;5.45;2.63;;;30.20;99.90;;;;;;5089946;28;20262;-53
2022/06/16 09:42:59;;;;;;;9.48;3.08;;;30.10;99.90;;;;;;5083969;28;20284;-53
2022/06/16 09:45:31;;;;;;;3.80;2.65;;;30.00;99.90;;;;;;5079564;28;20276;-53
2022/06/16 09:48:06;;;;;;;6.22;3.78;;;30.30;99.90;;;;;;5085429;28;20188;-53
2022/06/16 09:50:41;;;;;;;2.45;2.22;;;30.20;99.90;;;;;;5094236;28;20235;-53
2022/06/16 09:53:14;;;;;;;4.15;2.53;;;30.10;99.90;;;;;;5093457;28;20365;-54
2022/06/16 09:55:45;;;;;;;2.75;2.55;;;30.50;99.90;;;;;;5089193;28;20200;-53
2022/06/16 09:58:18;;;;;;;4.13;2.95;;;30.30;99.90;;;;;;5081645;28;20201;-53
2022/06/16 10:00:45;;;;;;;6.80;2.67;;;29.70;99.90;;;;;;5073616;28;20655;-53
2022/06/16 10:03:25;;;;;;;4.43;2.90;;;29.90;99.90;;;;;;5073364;28;20260;-53
2022/06/16 10:06:02;;;;;;;4.18;2.10;;;30.30;99.90;;;;;;5091717;28;20198;-53
2022/06/16 10:08:36;;;;;;;5.85;3.70;;;30.60;99.90;;;;;;5093784;28;20196;-53
2022/06/16 10:11:10;;;;;;;8.52;3.05;;;30.90;99.90;;;;;;5093928;28;20203;-53
2022/06/16 10:13:44;;;;;;;9.55;2.78;;;31.10;99.90;;;;;;5093492;28;20747;-54
2022/06/16 10:16:14;;;;;;;2.65;2.10;;;31.30;99.90;;;;;;5089031;28;20257;-53
2022/06/16 10:18:43;;;;;;;5.72;2.97;;;31.60;99.90;;;;;;5090953;28;20291;-53
2022/06/16 10:21:12;;;;;;;6.70;2.25;;;31.90;99.90;;;;;;5091551;28;20201;-53
2022/06/16 10:23:44;;;;;;;5.32;2.75;;;31.70;99.90;;;;;;5076522;28;20217;-53
2022/06/16 10:26:12;;;;;;;5.00;3.20;;;30.60;99.90;;;;;;5085117;28;20280;-53
2022/06/16 10:29:00;;;;;;;3.60;3.30;;;30.40;99.90;;;;;;5089566;28;20192;-53
2022/06/16 10:31:36;;;;;;;2.80;2.60;;;30.30;99.90;;;;;;5089451;28;20674;-52
2022/06/16 10:34:06;;;;;;;3.88;2.80;;;29.70;99.90;;;;;;5091652;28;20295;-53
2022/06/16 10:36:33;;;;;;;4.85;3.53;;;29.10;99.90;;;;;;5090699;28;20224;-53
2022/06/16 10:39:17;;;;;;;5.80;3.45;;;28.60;99.90;;;;;;5087638;28;20636;-53
2022/06/16 10:41:52;;;;;;;4.65;3.50;;;27.90;99.90;;;;;;5089654;28;20214;-52
2022/06/16 10:44:23;;;;;;;3.83;3.47;;;28.10;99.90;;;;;;5092145;28;20211;-53
2022/06/16 10:46:53;;;;;;;8.00;4.38;;;28.20;99.90;;;;;;5091522;28;20690;-53
2022/06/16 10:49:26;;;;;;;5.53;3.65;;;29.00;99.90;;;;;;5088950;28;20195;-53
2022/06/16 10:51:56;;;;;;;3.55;3.25;;;29.30;99.90;;;;;;5092031;28;20193;-53
2022/06/16 10:54:29;;;;;;;7.97;3.65;;;29.90;99.90;;;;;;5091968;28;20281;-53
2022/06/16 10:57:12;;;;;;;4.07;3.38;;;30.40;99.90;;;;;;5090865;28;20220;-53
2022/06/16 10:59:43;;;;;;;3.53;3.25;;;30.60;99.90;;;;;;5088491;28;20670;-53
2022/06/16 11:02:25;;;;;;;4.47;3.80;;;31.00;99.90;;;;;;5091905;28;20200;-53
2022/06/16 11:04:59;;;;;;;3.70;3.50;;;30.80;99.90;;;;;;5088629;28;20713;-53
2022/06/16 11:07:34;;;;;;;4.30;3.42;;;30.90;99.90;;;;;;5084770;28;20221;-53
2022/06/16 11:10:05;;;;;;;8.23;3.90;;;30.60;99.90;;;;;;5091967;28;20200;-52
2022/06/16 11:12:32;;;;;;;5.00;3.50;;;29.90;99.90;;;;;;5085812;28;20712;-52
2022/06/16 11:15:02;;;;;;;5.10;3.05;;;29.40;99.90;;;;;;5089423;28;20303;-52
2022/06/16 11:17:31;;;;;;;3.88;3.42;;;28.70;99.90;;;;;;5089164;28;20704;-53
2022/06/16 11:20:03;;;;;;;5.40;3.28;;;28.10;99.90;;;;;;5082274;28;20242;-53
2022/06/16 11:22:34;;;;;;;6.70;4.00;;;27.70;99.90;;;;;;5089937;28;20611;-52
2022/06/16 11:25:05;;;;;;;7.10;3.90;;;27.40;99.90;;;;;;5088031;28;20216;-52
2022/06/16 11:27:40;;;;;;;5.22;3.92;;;27.30;99.90;;;;;;5090178;28;20197;-52
2022/06/16 11:30:30;;;;;;;3.33;3.13;;;27.10;99.90;;;;;;5088102;28;20211;-53
2022/06/16 11:32:57;;;;;;;4.75;4.25;;;26.90;99.90;;;;;;5089599;28;20262;-52
2022/06/16 11:35:33;;;;;;;4.50;3.20;;;26.80;99.90;;;;;;5086188;28;20261;-52
2022/06/16 11:38:09;;;;;;;3.35;3.08;;;26.60;99.90;;;;;;5089931;28;20222;-52
2022/06/16 11:40:43;;;;;;;5.68;4.03;;;26.60;99.90;;;;;;5090294;28;21133;-52
2022/06/16 11:43:55;;;;;;;4.50;3.22;;;26.50;99.90;;;;;;5088880;28;20273;-52
2022/06/16 11:46:26;;;;;;;5.95;4.05;;;26.40;99.90;;;;;;5005594;28;20195;-52
2022/06/16 11:49:13;;;;;;;4.40;3.40;;;26.30;99.90;;;;;;5080761;28;20240;-53
2022/06/16 11:51:49;;;;;;;6.40;3.72;;;26.30;99.90;;;;;;5090672;28;20205;-52
2022/06/16 11:54:28;;;;;;;4.25;3.63;;;26.30;99.90;;;;;;5086075;28;20227;-52
2022/06/16 11:57:05;;;;;;;6.80;3.50;;;26.20;99.90;;;;;;5089770;28;20216;-53
2022/06/16 12:00:04;;;;;;;3.47;3.28;;;26.20;99.90;;;;;;5090237;28;20245;-53
2022/06/16 12:03:04;;;;;;;4.20;3.10;;;26.20;99.90;;;;;;5084209;28;20228;-53
2022/06/16 12:05:39;;;;;;;4.32;3.90;;;26.20;99.90;;;;;;5085377;28;20200;-52
2022/06/16 12:08:27;;;;;;;3.83;3.58;;;26.30;99.90;;;;;;5086506;28;20196;-53
2022/06/16 12:10:56;;;;;;;6.47;4.25;;;26.60;99.90;;;;;;5086274;28;20218;-52
2022/06/16 12:13:31;;;;;;;7.50;4.10;;;26.40;99.90;;;;;;5089326;28;20293;-52
2022/06/16 12:16:07;;;;;;;6.90;3.53;;;26.40;99.90;;;;;;5085280;28;20286;-52
2022/06/16 12:18:56;;;;;;;3.80;3.30;;;26.30;99.90;;;;;;5089658;28;20283;-53
2022/06/16 12:21:28;;;;;;;7.80;5.30;;;26.20;99.90;;;;;;5088968;28;20196;-52
2022/06/16 12:24:03;;;;;;;6.35;4.75;;;26.20;99.90;;;;;;5089071;28;20654;-52
2022/06/16 12:26:33;;;;;;;5.15;3.17;;;26.10;99.90;;;;;;5090136;28;20249;-52
2022/06/16 12:29:13;;;;;;;3.83;3.47;;;25.50;99.90;;;;;;5089162;28;20628;-52
2022/06/16 12:31:53;;;;;;;4.37;3.40;;;25.10;99.90;;;;;;5092483;28;20269;-52
2022/06/16 12:34:27;;;;;;;4.40;3.60;;;24.80;99.90;;;;;;5087957;28;20293;-53
2022/06/16 12:36:57;;;;;;;2.47;2.30;;;25.00;99.90;;;;;;5087675;28;20759;-52
2022/06/16 12:39:29;;;;;;;1.55;1.55;;;25.20;99.90;;;;;;5090555;28;20241;-52
2022/06/16 12:42:02;;;;;;;1.63;1.53;;;25.20;99.90;;;;;;5085140;28;20545;-52
2022/06/16 12:44:35;;;;;;;4.20;2.13;;;25.10;99.90;;;;;;5086634;28;20224;-52
2022/06/16 12:47:06;;;;;;;2.47;1.87;;;25.00;99.90;;;;;;5093231;28;20204;-52
2022/06/16 12:49:39;;;;;;;2.70;2.10;;;24.80;99.90;;;;;;5093211;28;20284;-53
2022/06/16 12:52:13;;;;;;;3.07;1.90;;;24.60;99.90;;;;;;5090541;28;20200;-52
2022/06/16 12:54:47;;;;;;;3.57;2.27;;;24.50;99.90;;;;;;5088914;28;20220;-52
2022/06/16 12:57:20;;;;;;;2.17;2.07;;;24.40;99.90;;;;;;5093126;28;20303;-52
2022/06/16 12:59:54;;;;;;;4.23;1.83;;;24.40;99.90;;;;;;5093701;28;20204;-52
2022/06/16 13:02:25;;;;;;;2.03;1.80;;;24.40;99.90;;;;;;5092671;28;20231;-52
2022/06/16 13:04:55;;;;;;;2.57;2.37;;;24.40;99.90;;;;;;5089446;28;20224;-53
2022/06/16 13:07:25;;;;;;;2.40;2.30;;;24.40;99.90;;;;;;5089354;28;20566;-53
2022/06/16 13:09:53;;;;;;;2.37;2.23;;;24.40;99.90;;;;;;5093332;28;20193;-52
2022/06/16 13:12:26;;;;;;;2.17;2.00;;;24.40;99.90;;;;;;5094017;28;20245;-52
2022/06/16 13:14:57;;;;;;;2.80;2.60;;;24.70;99.90;;;;;;5085106;28;20274;-52
2022/06/16 13:17:31;;;;;;;3.00;2.90;;;25.00;99.90;;;;;;5080946;28;20244;-53
2022/06/16 13:20:03;;;;;;;3.80;2.80;;;25.40;99.90;;;;;;5091940;28;20677;-52
2022/06/16 13:22:38;;;;;;;2.80;2.70;;;25.80;99.90;;;;;;5074795;28;20729;-52